createdAt,value
2023-05-02T00:00:48.184Z,630.00
2023-05-02T00:01:48.262Z,630.00
2023-05-02T00:02:48.550Z,627.00
2023-05-02T00:03:48.352Z,627.00
2023-05-02T00:04:48.354Z,628.00
2023-05-02T00:05:48.402Z,628.00
2023-05-02T00:06:48.484Z,629.00
2023-05-02T00:07:48.498Z,627.00
2023-05-02T00:08:48.560Z,626.00
2023-05-02T00:09:48.585Z,626.00
2023-05-02T00:10:48.585Z,626.00
2023-05-02T00:11:48.661Z,628.00
2023-05-02T00:12:48.715Z,629.00
2023-05-02T00:13:48.822Z,630.00
2023-05-02T00:14:48.812Z,630.00
2023-05-02T00:15:48.839Z,632.00
2023-05-02T00:16:49.059Z,634.00
2023-05-02T00:17:48.959Z,635.00
2023-05-02T00:18:48.939Z,638.00
2023-05-02T00:19:49.014Z,640.00
2023-05-02T00:20:49.091Z,640.00
2023-05-02T00:21:49.117Z,637.00
2023-05-02T00:22:49.113Z,635.00
2023-05-02T00:23:49.194Z,634.00
2023-05-02T00:24:49.257Z,636.00
2023-05-02T00:25:49.301Z,635.00
2023-05-02T00:26:49.306Z,633.00
2023-05-02T00:27:49.361Z,631.00
2023-05-02T00:28:49.444Z,631.00
2023-05-02T00:29:49.517Z,630.00
2023-05-02T00:30:49.499Z,630.00
2023-05-02T00:31:49.528Z,632.00
2023-05-02T00:32:49.599Z,631.00
2023-05-02T00:33:49.605Z,632.00
2023-05-02T00:34:49.651Z,631.00
2023-05-02T00:35:49.711Z,630.00
2023-05-02T00:36:49.727Z,632.00
2023-05-02T00:37:49.799Z,633.00
2023-05-02T00:38:49.886Z,632.00
2023-05-02T00:39:49.876Z,633.00
2023-05-02T00:40:49.908Z,634.00
2023-05-02T00:41:49.959Z,634.00
2023-05-02T00:42:49.995Z,633.00
2023-05-02T00:43:50.035Z,633.00
2023-05-02T00:44:50.109Z,633.00
2023-05-02T00:45:50.155Z,633.00
2023-05-02T00:46:50.269Z,635.00
2023-05-02T00:47:50.241Z,635.00
2023-05-02T00:48:50.306Z,635.00
2023-05-02T00:49:50.296Z,634.00
2023-05-02T00:50:50.347Z,634.00
2023-05-02T00:51:50.397Z,632.00
2023-05-02T00:52:50.470Z,633.00
2023-05-02T00:53:50.545Z,634.00
2023-05-02T00:54:50.518Z,631.00
2023-05-02T00:55:50.563Z,630.00
2023-05-02T00:56:50.609Z,629.00
2023-05-02T00:57:50.649Z,630.00
2023-05-02T00:58:50.709Z,629.00
2023-05-02T00:59:50.758Z,628.00
2023-05-02T01:00:50.794Z,626.00
2023-05-02T01:01:50.870Z,627.00
2023-05-02T01:02:51.049Z,626.00
2023-05-02T01:03:51.102Z,627.00
2023-05-02T01:04:50.993Z,626.00
2023-05-02T01:05:51.033Z,626.00
2023-05-02T01:06:51.164Z,625.00
2023-05-02T01:07:51.132Z,625.00
2023-05-02T01:08:51.189Z,625.00
2023-05-02T01:09:51.253Z,627.00
2023-05-02T01:10:51.342Z,629.00
2023-05-02T01:11:51.347Z,627.00
2023-05-02T01:12:51.419Z,627.00
2023-05-02T01:13:51.437Z,628.00
2023-05-02T01:14:51.501Z,628.00
2023-05-02T01:15:51.594Z,627.00
2023-05-02T01:16:51.574Z,627.00
2023-05-02T01:17:51.685Z,627.00
2023-05-02T01:18:51.666Z,626.00
2023-05-02T01:19:51.703Z,627.00
2023-05-02T01:20:51.768Z,627.00
2023-05-02T01:21:51.801Z,628.00
2023-05-02T01:22:51.853Z,629.00
2023-05-02T01:23:51.902Z,629.00
2023-05-02T01:24:51.943Z,628.00
2023-05-02T01:25:52.017Z,630.00
2023-05-02T01:26:52.079Z,630.00
2023-05-02T01:27:52.128Z,631.00
2023-05-02T01:28:52.158Z,631.00
2023-05-02T01:29:52.192Z,632.00
2023-05-02T01:30:52.260Z,632.00
2023-05-02T01:31:52.324Z,632.00
2023-05-02T01:32:52.443Z,632.00
2023-05-02T01:33:52.371Z,635.00
2023-05-02T01:34:52.418Z,635.00
2023-05-02T01:35:52.537Z,635.00
2023-05-02T01:36:52.529Z,635.00
2023-05-02T01:37:52.595Z,634.00
2023-05-02T01:38:52.621Z,635.00
2023-05-02T01:39:52.690Z,634.00
2023-05-02T01:40:52.711Z,635.00
2023-05-02T01:41:52.773Z,635.00
2023-05-02T01:42:52.796Z,635.00
2023-05-02T01:43:52.844Z,634.00
2023-05-02T01:44:52.897Z,632.00
2023-05-02T01:45:52.961Z,635.00
2023-05-02T01:46:53.091Z,635.00
2023-05-02T01:47:53.081Z,635.00
2023-05-02T01:48:53.093Z,635.00
2023-05-02T01:49:53.143Z,635.00
2023-05-02T01:50:53.215Z,634.00
2023-05-02T01:51:53.261Z,633.00
2023-05-02T01:52:53.304Z,634.00
2023-05-02T01:53:53.343Z,635.00
2023-05-02T01:54:53.413Z,633.00
2023-05-02T01:55:53.428Z,633.00
2023-05-02T01:56:53.559Z,633.00
2023-05-02T01:57:53.521Z,630.00
2023-05-02T01:58:53.587Z,627.00
2023-05-02T01:59:53.623Z,627.00
2023-05-02T02:00:53.746Z,627.00
2023-05-02T02:01:53.714Z,628.00
2023-05-02T02:02:53.809Z,628.00
2023-05-02T02:03:53.837Z,628.00
2023-05-02T02:04:53.875Z,626.00
2023-05-02T02:05:53.967Z,623.00
2023-05-02T02:06:54.059Z,623.00
2023-05-02T02:07:54.033Z,624.00
2023-05-02T02:08:54.072Z,627.00
2023-05-02T02:09:54.119Z,627.00
2023-05-02T02:10:54.200Z,626.00
2023-05-02T02:11:54.568Z,621.00
2023-05-02T02:12:54.272Z,619.00
2023-05-02T02:13:54.326Z,618.00
2023-05-02T02:14:54.393Z,621.00
2023-05-02T02:15:54.433Z,623.00
2023-05-02T02:16:54.569Z,623.00
2023-05-02T02:17:54.558Z,623.00
2023-05-02T02:18:54.646Z,621.00
2023-05-02T02:19:54.643Z,623.00
2023-05-02T02:20:54.662Z,622.00
2023-05-02T02:21:54.770Z,622.00
2023-05-02T02:22:54.766Z,622.00
2023-05-02T02:23:54.847Z,621.00
2023-05-02T02:24:54.883Z,620.00
2023-05-02T02:25:54.916Z,619.00
2023-05-02T02:26:55.002Z,620.00
2023-05-02T02:27:55.006Z,621.00
2023-05-02T02:28:55.081Z,621.00
2023-05-02T02:29:55.098Z,621.00
2023-05-02T02:30:55.179Z,623.00
2023-05-02T02:31:55.251Z,623.00
2023-05-02T02:32:55.263Z,624.00
2023-05-02T02:33:55.348Z,623.00
2023-05-02T02:34:55.409Z,621.00
2023-05-02T02:35:55.424Z,624.00
2023-05-02T02:36:55.445Z,625.00
2023-05-02T02:37:55.562Z,626.00
2023-05-02T02:38:55.556Z,626.00
2023-05-02T02:39:55.684Z,626.00
2023-05-02T02:40:55.685Z,626.00
2023-05-02T02:41:55.730Z,627.00
2023-05-02T02:42:55.829Z,627.00
2023-05-02T02:43:55.833Z,628.00
2023-05-02T02:44:55.960Z,626.00
2023-05-02T02:45:55.983Z,628.00
2023-05-02T02:46:55.972Z,630.00
2023-05-02T02:47:56.138Z,632.00
2023-05-02T02:48:56.079Z,632.00
2023-05-02T02:49:56.245Z,632.00
2023-05-02T02:50:56.156Z,632.00
2023-05-02T02:51:56.222Z,630.00
2023-05-02T02:52:56.256Z,629.00
2023-05-02T02:53:56.308Z,630.00
2023-05-02T02:54:56.372Z,630.00
2023-05-02T02:55:56.402Z,626.00
2023-05-02T02:56:56.454Z,626.00
2023-05-02T02:57:56.497Z,626.00
2023-05-02T02:58:56.561Z,626.00
2023-05-02T02:59:57.051Z,625.00
2023-05-02T03:00:56.668Z,625.00
2023-05-02T03:01:56.772Z,626.00
2023-05-02T03:02:56.895Z,625.00
2023-05-02T03:03:56.841Z,626.00
2023-05-02T03:04:56.893Z,625.00
2023-05-02T03:05:56.906Z,626.00
2023-05-02T03:06:56.977Z,626.00
2023-05-02T03:07:57.036Z,624.00
2023-05-02T03:08:57.105Z,624.00
2023-05-02T03:09:57.250Z,623.00
2023-05-02T03:10:57.194Z,624.00
2023-05-02T03:11:57.232Z,622.00
2023-05-02T03:12:57.288Z,621.00
2023-05-02T03:13:57.363Z,617.00
2023-05-02T03:14:57.384Z,617.00
2023-05-02T03:15:57.510Z,615.00
2023-05-02T03:16:57.510Z,616.00
2023-05-02T03:17:57.625Z,617.00
2023-05-02T03:18:57.593Z,615.00
2023-05-02T03:19:57.918Z,614.00
2023-05-02T03:20:57.712Z,612.00
2023-05-02T03:21:57.751Z,613.00
2023-05-02T03:22:57.817Z,616.00
2023-05-02T03:23:57.870Z,616.00
2023-05-02T03:24:57.934Z,618.00
2023-05-02T03:25:57.986Z,618.00
2023-05-02T03:26:58.084Z,617.00
2023-05-02T03:27:58.092Z,617.00
2023-05-02T03:28:58.174Z,616.00
2023-05-02T03:29:58.461Z,617.00
2023-05-02T03:30:58.276Z,619.00
2023-05-02T03:31:58.377Z,622.00
2023-05-02T03:32:58.520Z,620.00
2023-05-02T03:33:58.382Z,619.00
2023-05-02T03:34:58.461Z,618.00
2023-05-02T03:35:58.497Z,620.00
2023-05-02T03:36:58.544Z,622.00
2023-05-02T03:37:58.599Z,623.00
2023-05-02T03:38:58.669Z,624.00
2023-05-02T03:39:58.873Z,625.00
2023-05-02T03:40:58.791Z,624.00
2023-05-02T03:41:58.818Z,624.00
2023-05-02T03:42:58.884Z,623.00
2023-05-02T03:43:58.918Z,620.00
2023-05-02T03:44:58.992Z,616.00
2023-05-02T03:45:59.029Z,616.00
2023-05-02T03:46:59.734Z,616.00
2023-05-02T03:47:59.188Z,618.00
2023-05-02T03:48:59.229Z,619.00
2023-05-02T03:49:59.444Z,618.00
2023-05-02T03:50:59.304Z,619.00
2023-05-02T03:51:59.815Z,621.00
2023-05-02T03:52:59.437Z,619.00
2023-05-02T03:53:59.476Z,619.00
2023-05-02T03:54:59.601Z,621.00
2023-05-02T03:55:59.635Z,621.00
2023-05-02T03:56:59.656Z,620.00
2023-05-02T03:57:59.713Z,621.00
2023-05-02T03:58:59.761Z,621.00
2023-05-02T04:00:00.007Z,622.00
2023-05-02T04:00:59.889Z,620.00
2023-05-02T04:01:59.937Z,622.00
2023-05-02T04:03:00.010Z,622.00
2023-05-02T04:04:00.032Z,621.00
2023-05-02T04:05:00.085Z,618.00
2023-05-02T04:06:00.230Z,619.00
2023-05-02T04:07:00.207Z,618.00
2023-05-02T04:08:00.239Z,621.00
2023-05-02T04:09:01.057Z,622.00
2023-05-02T04:10:00.700Z,622.00
2023-05-02T04:11:00.388Z,621.00
2023-05-02T04:12:00.506Z,623.00
2023-05-02T04:13:00.534Z,625.00
2023-05-02T04:14:00.563Z,624.00
2023-05-02T04:15:00.625Z,626.00
2023-05-02T04:16:00.705Z,626.00
2023-05-02T04:17:00.836Z,626.00
2023-05-02T04:18:00.870Z,625.00
2023-05-02T04:19:00.848Z,623.00
2023-05-02T04:20:04.041Z,623.00
2023-05-02T04:21:00.920Z,624.00
2023-05-02T04:22:00.892Z,622.00
2023-05-02T04:23:00.895Z,623.00
2023-05-02T04:24:00.893Z,625.00
2023-05-02T04:25:00.855Z,625.00
2023-05-02T04:26:00.854Z,622.00
2023-05-02T04:27:00.860Z,623.00
2023-05-02T04:28:00.859Z,624.00
2023-05-02T04:29:00.878Z,624.00
2023-05-02T04:30:01.181Z,624.00
2023-05-02T04:31:00.894Z,625.00
2023-05-02T04:32:00.836Z,623.00
2023-05-02T04:33:00.913Z,621.00
2023-05-02T04:34:00.814Z,623.00
2023-05-02T04:35:00.826Z,624.00
2023-05-02T04:36:00.772Z,623.00
2023-05-02T04:37:00.784Z,622.00
2023-05-02T04:38:00.767Z,621.00
2023-05-02T04:39:00.798Z,622.00
2023-05-02T04:40:00.992Z,623.00
2023-05-02T04:41:00.750Z,623.00
2023-05-02T04:42:01.839Z,622.00
2023-05-02T04:43:00.778Z,623.00
2023-05-02T04:44:00.768Z,622.00
2023-05-02T04:45:00.726Z,623.00
2023-05-02T04:46:00.809Z,623.00
2023-05-02T04:47:00.724Z,620.00
2023-05-02T04:48:00.761Z,621.00
2023-05-02T04:49:00.725Z,621.00
2023-05-02T04:50:00.970Z,622.00
2023-05-02T04:51:00.694Z,621.00
2023-05-02T04:52:00.759Z,621.00
2023-05-02T04:53:00.805Z,623.00
2023-05-02T04:54:00.876Z,620.00
2023-05-02T04:55:01.106Z,623.00
2023-05-02T04:56:01.072Z,621.00
2023-05-02T04:57:01.060Z,621.00
2023-05-02T04:58:01.100Z,621.00
2023-05-02T04:59:01.143Z,621.00
2023-05-02T05:00:01.434Z,619.00
2023-05-02T05:01:01.280Z,618.00
2023-05-02T05:02:01.380Z,620.00
2023-05-02T05:03:01.997Z,621.00
2023-05-02T05:04:01.505Z,619.00
2023-05-02T05:05:01.577Z,619.00
2023-05-02T05:06:01.568Z,619.00
2023-05-02T05:07:01.681Z,620.00
2023-05-02T05:08:01.656Z,621.00
2023-05-02T05:09:01.723Z,619.00
2023-05-02T05:10:02.084Z,620.00
2023-05-02T05:11:01.818Z,617.00
2023-05-02T05:12:01.912Z,617.00
2023-05-02T05:13:01.922Z,618.00
2023-05-02T05:14:01.994Z,617.00
2023-05-02T05:15:02.036Z,617.00
2023-05-02T05:16:02.147Z,618.00
2023-05-02T05:17:02.640Z,618.00
2023-05-02T05:18:02.251Z,618.00
2023-05-02T05:19:02.258Z,620.00
2023-05-02T05:20:02.529Z,620.00
2023-05-02T05:21:02.363Z,621.00
2023-05-02T05:22:02.418Z,619.00
2023-05-02T05:23:02.496Z,617.00
2023-05-02T05:24:02.553Z,618.00
2023-05-02T05:25:05.149Z,616.00
2023-05-02T05:26:02.802Z,618.00
2023-05-02T05:27:03.121Z,617.00
2023-05-02T05:28:02.883Z,616.00
2023-05-02T05:29:03.069Z,614.00
2023-05-02T05:30:03.420Z,616.00
2023-05-02T05:31:03.139Z,615.00
2023-05-02T05:32:03.120Z,616.00
2023-05-02T05:33:04.115Z,617.00
2023-05-02T05:34:03.249Z,617.00
2023-05-02T05:35:03.766Z,617.00
2023-05-02T05:36:03.341Z,620.00
2023-05-02T05:37:03.737Z,627.00
2023-05-02T05:38:03.458Z,729.00
2023-05-02T05:39:03.525Z,738.00
2023-05-02T05:40:03.862Z,777.00
2023-05-02T05:41:03.614Z,858.00
2023-05-02T05:42:03.685Z,974.00
2023-05-02T05:43:03.721Z,974.00
2023-05-02T05:44:03.750Z,949.00
2023-05-02T05:45:03.850Z,964.00
2023-05-02T05:46:04.697Z,958.00
2023-05-02T05:47:03.894Z,943.00
2023-05-02T05:48:04.128Z,1014.00
2023-05-02T05:49:03.889Z,930.00
2023-05-02T05:50:04.128Z,904.00
2023-05-02T05:51:03.898Z,891.00
2023-05-02T05:52:03.897Z,889.00
2023-05-02T05:53:03.936Z,959.00
2023-05-02T05:54:03.926Z,976.00
2023-05-02T05:55:04.130Z,973.00
2023-05-02T05:56:03.951Z,983.00
2023-05-02T05:57:04.200Z,995.00
2023-05-02T05:58:03.986Z,1011.00
2023-05-02T05:59:03.955Z,1054.00
2023-05-02T06:00:04.247Z,1065.00
2023-05-02T06:01:04.034Z,1068.00
2023-05-02T06:02:04.177Z,1100.00
2023-05-02T06:03:05.037Z,1119.00
2023-05-02T06:04:04.294Z,1137.00
2023-05-02T06:05:04.422Z,1173.00
2023-05-02T06:06:04.408Z,1228.00
2023-05-02T06:07:04.372Z,1247.00
2023-05-02T06:08:04.407Z,1291.00
2023-05-02T06:09:04.477Z,1319.00
2023-05-02T06:10:04.520Z,1354.00
2023-05-02T06:11:04.566Z,1373.00
2023-05-02T06:12:04.582Z,1430.00
2023-05-02T06:13:04.598Z,1472.00
2023-05-02T06:14:04.676Z,1573.00
2023-05-02T06:15:04.682Z,1551.00
2023-05-02T06:16:04.727Z,1545.00
2023-05-02T06:17:04.728Z,1559.00
2023-05-02T06:18:04.949Z,1576.00
2023-05-02T06:19:04.820Z,1619.00
2023-05-02T06:20:04.852Z,1634.00
2023-05-02T06:21:05.258Z,1672.00
2023-05-02T06:22:05.072Z,1719.00
2023-05-02T06:23:05.018Z,1743.00
2023-05-02T06:24:04.859Z,1806.00
2023-05-02T06:25:04.889Z,1821.00
2023-05-02T06:26:04.905Z,1890.00
2023-05-02T06:27:04.943Z,1888.00
2023-05-02T06:28:04.882Z,1803.00
2023-05-02T06:29:04.898Z,1809.00
2023-05-02T06:30:05.015Z,1815.00
2023-05-02T06:31:05.023Z,1905.00
2023-05-02T06:32:04.931Z,1765.00
2023-05-02T06:33:05.008Z,1817.00
2023-05-02T06:34:04.899Z,1914.00
2023-05-02T06:35:04.921Z,1925.00
2023-05-02T06:36:04.884Z,1925.00
2023-05-02T06:37:05.700Z,1928.00
2023-05-02T06:38:05.637Z,1660.00
2023-05-02T06:39:04.907Z,1157.00
2023-05-02T06:40:05.155Z,1007.00
2023-05-02T06:41:04.944Z,1041.00
2023-05-02T06:42:05.014Z,1025.00
2023-05-02T06:43:04.916Z,1030.00
2023-05-02T06:44:04.950Z,1089.00
2023-05-02T06:45:04.935Z,1120.00
2023-05-02T06:46:04.962Z,1028.00
2023-05-02T06:47:04.983Z,1085.00
2023-05-02T06:48:04.934Z,1071.00
2023-05-02T06:49:04.902Z,1096.00
2023-05-02T06:50:04.922Z,1166.00
2023-05-02T06:51:06.632Z,1169.00
2023-05-02T06:52:04.937Z,1193.00
2023-05-02T06:53:05.869Z,1197.00
2023-05-02T06:54:05.133Z,1249.00
2023-05-02T06:55:05.028Z,1245.00
2023-05-02T06:56:05.052Z,1243.00
2023-05-02T06:57:05.188Z,1133.00
2023-05-02T06:58:05.185Z,1214.00
2023-05-02T06:59:05.275Z,1277.00
2023-05-02T07:00:05.507Z,1286.00
2023-05-02T07:01:05.422Z,1257.00
2023-05-02T07:02:05.710Z,1257.00
2023-05-02T07:03:05.551Z,1258.00
2023-05-02T07:04:05.571Z,1314.00
2023-05-02T07:05:05.714Z,1317.00
2023-05-02T07:06:05.663Z,1333.00
2023-05-02T07:07:05.734Z,1344.00
2023-05-02T07:08:05.794Z,1369.00
2023-05-02T07:09:05.889Z,1371.00
2023-05-02T07:10:05.867Z,1375.00
2023-05-02T07:11:05.964Z,1360.00
2023-05-02T07:12:07.097Z,1319.00
2023-05-02T07:13:06.031Z,1341.00
2023-05-02T07:14:06.106Z,1423.00
2023-05-02T07:15:06.116Z,1428.00
2023-05-02T07:16:06.165Z,1521.00
2023-05-02T07:17:06.307Z,1617.00
2023-05-02T07:18:06.284Z,1491.00
2023-05-02T07:19:06.326Z,1374.00
2023-05-02T07:20:06.319Z,1384.00
2023-05-02T07:21:06.388Z,1436.00
2023-05-02T07:22:06.403Z,1462.00
2023-05-02T07:23:06.775Z,1479.00
2023-05-02T07:24:06.562Z,1499.00
2023-05-02T07:25:06.568Z,1482.00
2023-05-02T07:26:06.654Z,1495.00
2023-05-02T07:27:06.635Z,1553.00
2023-05-02T07:28:06.662Z,1521.00
2023-05-02T07:29:06.756Z,1474.00
2023-05-02T07:30:06.861Z,1448.00
2023-05-02T07:31:07.118Z,1462.00
2023-05-02T07:32:07.046Z,1485.00
2023-05-02T07:33:06.961Z,1565.00
2023-05-02T07:34:06.913Z,1578.00
2023-05-02T07:35:07.218Z,1583.00
2023-05-02T07:36:07.129Z,1647.00
2023-05-02T07:37:07.127Z,1721.00
2023-05-02T07:38:07.090Z,1698.00
2023-05-02T07:39:07.150Z,1785.00
2023-05-02T07:40:07.645Z,1709.00
2023-05-02T07:41:07.248Z,1719.00
2023-05-02T07:42:07.244Z,1609.00
2023-05-02T07:43:08.792Z,1642.00
2023-05-02T07:44:07.264Z,1676.00
2023-05-02T07:45:07.274Z,1652.00
2023-05-02T07:46:07.284Z,1647.00
2023-05-02T07:47:07.284Z,1704.00
2023-05-02T07:48:07.293Z,1672.00
2023-05-02T07:49:07.275Z,1697.00
2023-05-02T07:50:07.251Z,1732.00
2023-05-02T07:51:07.257Z,1604.00
2023-05-02T07:52:07.223Z,1655.00
2023-05-02T07:53:07.254Z,1633.00
2023-05-02T07:54:07.220Z,1612.00
2023-05-02T07:55:10.197Z,1660.00
2023-05-02T07:56:08.153Z,1686.00
2023-05-02T07:57:07.206Z,1681.00
2023-05-02T07:58:07.182Z,1678.00
2023-05-02T07:59:07.181Z,1678.00
2023-05-02T08:00:07.163Z,1681.00
2023-05-02T08:01:07.159Z,1680.00
2023-05-02T08:02:07.192Z,1679.00
2023-05-02T08:03:07.264Z,1685.00
2023-05-02T08:04:07.291Z,1628.00
2023-05-02T08:05:07.273Z,1651.00
2023-05-02T08:06:07.172Z,1669.00
2023-05-02T08:07:07.130Z,1683.00
2023-05-02T08:08:07.308Z,1701.00
2023-05-02T08:09:07.136Z,1700.00
2023-05-02T08:10:07.102Z,1579.00
2023-05-02T08:11:07.183Z,1580.00
2023-05-02T08:12:07.099Z,1482.00
2023-05-02T08:13:07.074Z,1357.00
2023-05-02T08:14:07.086Z,1331.00
2023-05-02T08:15:07.250Z,1294.00
2023-05-02T08:16:07.108Z,1251.00
2023-05-02T08:17:07.060Z,1263.00
2023-05-02T08:18:07.109Z,1225.00
2023-05-02T08:19:07.040Z,1262.00
2023-05-02T08:20:07.185Z,1287.00
2023-05-02T08:21:07.028Z,1195.00
2023-05-02T08:22:07.080Z,1244.00
2023-05-02T08:23:07.048Z,1255.00
2023-05-02T08:24:07.123Z,1265.00
2023-05-02T08:25:07.195Z,1273.00
2023-05-02T08:26:07.276Z,1270.00
2023-05-02T08:27:07.244Z,1188.00
2023-05-02T08:28:07.448Z,1211.00
2023-05-02T08:29:07.367Z,1214.00
2023-05-02T08:30:07.805Z,1220.00
2023-05-02T08:31:08.237Z,1225.00
2023-05-02T08:32:07.668Z,1223.00
2023-05-02T08:33:07.624Z,1215.00
2023-05-02T08:34:07.615Z,1199.00
2023-05-02T08:35:07.656Z,1174.00
2023-05-02T08:36:07.597Z,1151.00
2023-05-02T08:37:07.600Z,1121.00
2023-05-02T08:38:07.647Z,1073.00
2023-05-02T08:39:07.601Z,1067.00
2023-05-02T08:40:07.710Z,1070.00
2023-05-02T08:41:07.648Z,1069.00
2023-05-02T08:42:07.764Z,1068.00
2023-05-02T08:43:07.657Z,1170.00
2023-05-02T08:44:07.684Z,1211.00
2023-05-02T08:45:07.681Z,1314.00
2023-05-02T08:46:07.708Z,1321.00
2023-05-02T08:47:07.723Z,1413.00
2023-05-02T08:48:07.768Z,1419.00
2023-05-02T08:49:07.815Z,1428.00
2023-05-02T08:50:07.709Z,1437.00
2023-05-02T08:51:07.702Z,1495.00
2023-05-02T08:52:07.691Z,1495.00
2023-05-02T08:53:07.707Z,1577.00
2023-05-02T08:54:07.801Z,1593.00
2023-05-02T08:55:07.851Z,1610.00
2023-05-02T08:56:08.029Z,1624.00
2023-05-02T08:57:08.709Z,1660.00
2023-05-02T08:58:08.057Z,1690.00
2023-05-02T08:59:08.063Z,1707.00
2023-05-02T09:00:08.235Z,1747.00
2023-05-02T09:01:08.233Z,1867.00
2023-05-02T09:02:08.236Z,1865.00
2023-05-02T09:03:08.342Z,1896.00
2023-05-02T09:04:08.411Z,1917.00
2023-05-02T09:05:08.364Z,1973.00
2023-05-02T09:06:08.475Z,1967.00
2023-05-02T09:07:08.740Z,1981.00
2023-05-02T09:08:08.477Z,1842.00
2023-05-02T09:09:08.559Z,1887.00
2023-05-02T09:10:08.596Z,1907.00
2023-05-02T09:11:08.592Z,1933.00
2023-05-02T09:12:08.640Z,1947.00
2023-05-02T09:13:09.176Z,1953.00
2023-05-02T09:14:08.713Z,1945.00
2023-05-02T09:15:08.810Z,1970.00
2023-05-02T09:16:08.861Z,1990.00
2023-05-02T09:17:08.948Z,2042.00
2023-05-02T09:18:08.925Z,2028.00
2023-05-02T09:19:08.920Z,1806.00
2023-05-02T09:20:08.979Z,1514.00
2023-05-02T09:21:09.090Z,1508.00
2023-05-02T09:22:09.066Z,1511.00
2023-05-02T09:23:09.198Z,1326.00
2023-05-02T09:24:09.153Z,1220.00
2023-05-02T09:25:09.168Z,1426.00
2023-05-02T09:26:09.226Z,1556.00
2023-05-02T09:27:09.274Z,1591.00
2023-05-02T09:28:09.306Z,1549.00
2023-05-02T09:29:09.335Z,1549.00
2023-05-02T09:30:09.398Z,1653.00
2023-05-02T09:31:09.536Z,1723.00
2023-05-02T09:32:09.573Z,1730.00
2023-05-02T09:33:09.582Z,1738.00
2023-05-02T09:34:09.582Z,1819.00
2023-05-02T09:35:09.623Z,1802.00
2023-05-02T09:36:09.694Z,1798.00
2023-05-02T09:37:09.704Z,1792.00
2023-05-02T09:38:10.319Z,1792.00
2023-05-02T09:39:10.010Z,1443.00
2023-05-02T09:40:09.788Z,1228.00
2023-05-02T09:41:09.777Z,1233.00
2023-05-02T09:42:09.782Z,1230.00
2023-05-02T09:43:09.878Z,1091.00
2023-05-02T09:44:10.708Z,1071.00
2023-05-02T09:45:09.838Z,1069.00
2023-05-02T09:46:10.250Z,1057.00
2023-05-02T09:47:10.005Z,1036.00
2023-05-02T09:48:09.938Z,976.00
2023-05-02T09:49:09.966Z,965.00
2023-05-02T09:50:10.019Z,944.00
2023-05-02T09:51:10.041Z,917.00
2023-05-02T09:52:10.140Z,884.00
2023-05-02T09:53:10.200Z,883.00
2023-05-02T09:54:10.173Z,889.00
2023-05-02T09:55:10.170Z,881.00
2023-05-02T09:56:10.296Z,875.00
2023-05-02T09:57:10.287Z,870.00
2023-05-02T09:58:10.314Z,868.00
2023-05-02T09:59:10.362Z,870.00
2023-05-02T10:00:10.378Z,872.00
2023-05-02T10:01:10.516Z,884.00
2023-05-02T10:02:10.458Z,898.00
2023-05-02T10:03:10.614Z,907.00
2023-05-02T10:04:10.608Z,912.00
2023-05-02T10:05:10.585Z,918.00
2023-05-02T10:06:10.652Z,932.00
2023-05-02T10:07:10.916Z,944.00
2023-05-02T10:08:10.667Z,954.00
2023-05-02T10:09:10.680Z,1006.00
2023-05-02T10:10:10.706Z,996.00
2023-05-02T10:11:10.750Z,986.00
2023-05-02T10:12:10.742Z,997.00
2023-05-02T10:13:10.814Z,1000.00
2023-05-02T10:14:10.800Z,1002.00
2023-05-02T10:15:10.889Z,999.00
2023-05-02T10:16:10.857Z,1006.00
2023-05-02T10:17:10.898Z,1015.00
2023-05-02T10:18:10.985Z,1038.00
2023-05-02T10:19:10.972Z,1046.00
2023-05-02T10:20:10.942Z,1052.00
2023-05-02T10:21:10.942Z,1050.00
2023-05-02T10:22:11.059Z,1042.00
2023-05-02T10:23:10.979Z,954.00
2023-05-02T10:24:11.002Z,917.00
2023-05-02T10:25:11.173Z,908.00
2023-05-02T10:26:11.109Z,885.00
2023-05-02T10:27:11.208Z,799.00
2023-05-02T10:28:11.211Z,871.00
2023-05-02T10:29:11.246Z,935.00
2023-05-02T10:30:11.842Z,1006.00
2023-05-02T10:31:11.330Z,1004.00
2023-05-02T10:32:11.361Z,1002.00
2023-05-02T10:33:11.493Z,1095.00
2023-05-02T10:34:11.482Z,1122.00
2023-05-02T10:35:11.457Z,1145.00
2023-05-02T10:36:11.465Z,1146.00
2023-05-02T10:37:11.524Z,1183.00
2023-05-02T10:38:11.529Z,1226.00
2023-05-02T10:39:11.540Z,1302.00
2023-05-02T10:40:11.547Z,1311.00
2023-05-02T10:41:11.519Z,1402.00
2023-05-02T10:42:11.527Z,1412.00
2023-05-02T10:43:11.567Z,1409.00
2023-05-02T10:44:11.553Z,1416.00
2023-05-02T10:45:11.540Z,1533.00
2023-05-02T10:46:11.616Z,1540.00
2023-05-02T10:47:11.660Z,1546.00
2023-05-02T10:48:11.865Z,1548.00
2023-05-02T10:49:11.770Z,1619.00
2023-05-02T10:50:11.876Z,1672.00
2023-05-02T10:51:11.937Z,1668.00
2023-05-02T10:52:11.968Z,1761.00
2023-05-02T10:53:12.015Z,1685.00
2023-05-02T10:54:12.076Z,1718.00
2023-05-02T10:55:12.145Z,1717.00
2023-05-02T10:56:12.275Z,1726.00
2023-05-02T10:57:12.201Z,1740.00
2023-05-02T10:58:12.249Z,1801.00
2023-05-02T10:59:12.324Z,1827.00
2023-05-02T11:00:12.332Z,1841.00
2023-05-02T11:01:12.490Z,1873.00
2023-05-02T11:02:12.489Z,1952.00
2023-05-02T11:03:12.623Z,1952.00
2023-05-02T11:04:12.509Z,1945.00
2023-05-02T11:05:12.603Z,1984.00
2023-05-02T11:06:12.658Z,1979.00
2023-05-02T11:07:12.676Z,1995.00
2023-05-02T11:08:12.727Z,2008.00
2023-05-02T11:09:12.783Z,2119.00
2023-05-02T11:10:12.794Z,2134.00
2023-05-02T11:11:12.864Z,2131.00
2023-05-02T11:12:12.891Z,2147.00
2023-05-02T11:13:12.925Z,2206.00
2023-05-02T11:14:13.961Z,2074.00
2023-05-02T11:15:13.066Z,1949.00
2023-05-02T11:16:13.274Z,1900.00
2023-05-02T11:17:13.092Z,1886.00
2023-05-02T11:18:13.419Z,1822.00
2023-05-02T11:19:13.176Z,1817.00
2023-05-02T11:20:13.249Z,1823.00
2023-05-02T11:21:13.350Z,1829.00
2023-05-02T11:22:13.382Z,1822.00
2023-05-02T11:23:13.449Z,1811.00
2023-05-02T11:24:13.515Z,1802.00
2023-05-02T11:25:13.534Z,1788.00
2023-05-02T11:26:13.560Z,1786.00
2023-05-02T11:27:13.589Z,1773.00
2023-05-02T11:28:13.638Z,1768.00
2023-05-02T11:29:13.599Z,1760.00
2023-05-02T11:30:13.742Z,1750.00
2023-05-02T11:31:13.652Z,1739.00
2023-05-02T11:32:13.713Z,1729.00
2023-05-02T11:33:13.729Z,1721.00
2023-05-02T11:34:13.646Z,1708.00
2023-05-02T11:35:13.603Z,1699.00
2023-05-02T11:36:13.609Z,1692.00
2023-05-02T11:37:13.617Z,1684.00
2023-05-02T11:38:13.596Z,1668.00
2023-05-02T11:39:13.585Z,1653.00
2023-05-02T11:40:13.689Z,1643.00
2023-05-02T11:41:13.646Z,1642.00
2023-05-02T11:42:13.663Z,1638.00
2023-05-02T11:43:13.625Z,1633.00
2023-05-02T11:44:13.622Z,1627.00
2023-05-02T11:45:13.652Z,1619.00
2023-05-02T11:46:13.792Z,1609.00
2023-05-02T11:47:13.669Z,1600.00
2023-05-02T11:48:13.859Z,1594.00
2023-05-02T11:49:15.045Z,1591.00
2023-05-02T11:50:13.717Z,1582.00
2023-05-02T11:51:13.848Z,1575.00
2023-05-02T11:52:13.716Z,1566.00
2023-05-02T11:53:13.776Z,1560.00
2023-05-02T11:54:13.755Z,1557.00
2023-05-02T11:55:13.774Z,1550.00
2023-05-02T11:56:13.806Z,1545.00
2023-05-02T11:57:13.839Z,1535.00
2023-05-02T11:58:13.843Z,1527.00
2023-05-02T11:59:14.340Z,1518.00
2023-05-02T12:00:13.914Z,1516.00
2023-05-02T12:01:14.392Z,1507.00
2023-05-02T12:02:13.981Z,1502.00
2023-05-02T12:03:14.077Z,1497.00
2023-05-02T12:04:14.250Z,1489.00
2023-05-02T12:05:14.105Z,1475.00
2023-05-02T12:06:14.397Z,1453.00
2023-05-02T12:07:14.173Z,1439.00
2023-05-02T12:08:15.109Z,1433.00
2023-05-02T12:09:14.249Z,1432.00
2023-05-02T12:10:14.145Z,1419.00
2023-05-02T12:11:14.831Z,1412.00
2023-05-02T12:12:14.335Z,1407.00
2023-05-02T12:13:14.139Z,1403.00
2023-05-02T12:14:14.184Z,1394.00
2023-05-02T12:15:14.224Z,1390.00
2023-05-02T12:16:14.228Z,1384.00
2023-05-02T12:17:14.202Z,1368.00
2023-05-02T12:18:14.280Z,1359.00